sensor_id;sensor_type;location;lat;lon;timestamp;P1;durP1;ratioP1;P2;durP2;ratioP2
71637;SDS011;59485;43.542;-5.676;2023-10-09T00:00:11;28.38;;;11.45;;
71637;SDS011;59485;43.542;-5.676;2023-10-09T00:02:58;25.73;;;10.93;;
71637;SDS011;59485;43.542;-5.676;2023-10-09T00:05:29;25.98;;;9.55;;
71637;SDS011;59485;43.542;-5.676;2023-10-09T00:08:24;18.27;;;9.10;;
71637;SDS011;59485;43.542;-5.676;2023-10-09T00:10:56;18.13;;;8.43;;
71637;SDS011;59485;43.542;-5.676;2023-10-09T00:13:44;19.40;;;8.95;;
71637;SDS011;59485;43.542;-5.676;2023-10-09T00:16:15;18.37;;;8.43;;
71637;SDS011;59485;43.542;-5.676;2023-10-09T00:18:41;21.67;;;8.25;;
71637;SDS011;59485;43.542;-5.676;2023-10-09T00:21:17;20.42;;;9.15;;
71637;SDS011;59485;43.542;-5.676;2023-10-09T00:23:47;18.88;;;8.90;;
71637;SDS011;59485;43.542;-5.676;2023-10-09T00:26:24;18.33;;;8.05;;
71637;SDS011;59485;43.542;-5.676;2023-10-09T00:28:50;12.37;;;6.70;;
71637;SDS011;59485;43.542;-5.676;2023-10-09T00:31:19;19.38;;;6.80;;
71637;SDS011;59485;43.542;-5.676;2023-10-09T00:33:59;14.98;;;7.45;;
71637;SDS011;59485;43.542;-5.676;2023-10-09T00:36:44;14.73;;;7.60;;
71637;SDS011;59485;43.542;-5.676;2023-10-09T00:39:15;19.80;;;6.93;;
71637;SDS011;59485;43.542;-5.676;2023-10-09T00:41:48;15.77;;;6.93;;
71637;SDS011;59485;43.542;-5.676;2023-10-09T00:44:13;16.73;;;6.57;;
71637;SDS011;59485;43.542;-5.676;2023-10-09T00:46:39;13.37;;;7.13;;
71637;SDS011;59485;43.542;-5.676;2023-10-09T00:49:08;19.58;;;7.15;;
71637;SDS011;59485;43.542;-5.676;2023-10-09T00:51:36;18.48;;;7.93;;
71637;SDS011;59485;43.542;-5.676;2023-10-09T00:54:08;15.27;;;7.20;;
71637;SDS011;59485;43.542;-5.676;2023-10-09T00:59:05;16.60;;;8.23;;
71637;SDS011;59485;43.542;-5.676;2023-10-09T01:01:34;18.15;;;7.28;;
71637;SDS011;59485;43.542;-5.676;2023-10-09T01:04:03;17.30;;;7.32;;
71637;SDS011;59485;43.542;-5.676;2023-10-09T01:06:39;18.00;;;7.53;;
71637;SDS011;59485;43.542;-5.676;2023-10-09T01:09:11;17.70;;;7.93;;
71637;SDS011;59485;43.542;-5.676;2023-10-09T01:11:39;17.90;;;7.70;;
71637;SDS011;59485;43.542;-5.676;2023-10-09T01:14:17;18.38;;;7.25;;
71637;SDS011;59485;43.542;-5.676;2023-10-09T01:16:46;16.90;;;6.80;;
71637;SDS011;59485;43.542;-5.676;2023-10-09T01:19:13;19.98;;;8.07;;
71637;SDS011;59485;43.542;-5.676;2023-10-09T01:21:44;19.17;;;7.50;;
71637;SDS011;59485;43.542;-5.676;2023-10-09T01:24:10;15.50;;;6.93;;
71637;SDS011;59485;43.542;-5.676;2023-10-09T01:26:39;13.17;;;6.23;;
71637;SDS011;59485;43.542;-5.676;2023-10-09T01:29:21;16.08;;;6.18;;
71637;SDS011;59485;43.542;-5.676;2023-10-09T01:31:52;13.15;;;6.97;;
71637;SDS011;59485;43.542;-5.676;2023-10-09T01:34:30;13.70;;;6.13;;
71637;SDS011;59485;43.542;-5.676;2023-10-09T01:39:53;14.13;;;6.05;;
71637;SDS011;59485;43.542;-5.676;2023-10-09T01:42:24;15.73;;;6.45;;
71637;SDS011;59485;43.542;-5.676;2023-10-09T01:44:59;13.80;;;6.82;;
71637;SDS011;59485;43.542;-5.676;2023-10-09T01:47:44;12.17;;;6.80;;
71637;SDS011;59485;43.542;-5.676;2023-10-09T01:50:17;18.63;;;7.43;;
71637;SDS011;59485;43.542;-5.676;2023-10-09T01:52:47;17.45;;;8.18;;
71637;SDS011;59485;43.542;-5.676;2023-10-09T01:55:13;11.67;;;8.00;;
71637;SDS011;59485;43.542;-5.676;2023-10-09T01:57:52;16.50;;;8.82;;
71637;SDS011;59485;43.542;-5.676;2023-10-09T02:00:18;14.13;;;9.05;;
71637;SDS011;59485;43.542;-5.676;2023-10-09T02:02:49;17.97;;;9.20;;
71637;SDS011;59485;43.542;-5.676;2023-10-09T02:05:15;14.77;;;8.98;;
71637;SDS011;59485;43.542;-5.676;2023-10-09T02:07:41;15.90;;;9.15;;
71637;SDS011;59485;43.542;-5.676;2023-10-09T02:10:16;17.83;;;8.90;;
71637;SDS011;59485;43.542;-5.676;2023-10-09T02:12:55;18.33;;;10.75;;
71637;SDS011;59485;43.542;-5.676;2023-10-09T02:18:15;25.48;;;10.55;;
71637;SDS011;59485;43.542;-5.676;2023-10-09T02:20:42;19.35;;;8.38;;
71637;SDS011;59485;43.542;-5.676;2023-10-09T02:23:10;14.73;;;6.97;;
71637;SDS011;59485;43.542;-5.676;2023-10-09T02:25:38;12.18;;;6.15;;
71637;SDS011;59485;43.542;-5.676;2023-10-09T02:28:12;13.10;;;6.03;;
71637;SDS011;59485;43.542;-5.676;2023-10-09T02:30:44;21.30;;;7.43;;
71637;SDS011;59485;43.542;-5.676;2023-10-09T02:33:13;14.40;;;6.50;;
71637;SDS011;59485;43.542;-5.676;2023-10-09T02:35:56;13.25;;;5.97;;
71637;SDS011;59485;43.542;-5.676;2023-10-09T02:38:24;16.50;;;6.53;;
71637;SDS011;59485;43.542;-5.676;2023-10-09T02:40:53;12.80;;;5.97;;
71637;SDS011;59485;43.542;-5.676;2023-10-09T02:43:31;11.63;;;5.40;;
71637;SDS011;59485;43.542;-5.676;2023-10-09T02:46:16;13.30;;;5.93;;
71637;SDS011;59485;43.542;-5.676;2023-10-09T02:48:49;15.82;;;5.05;;
71637;SDS011;59485;43.542;-5.676;2023-10-09T02:51:27;12.57;;;5.20;;
71637;SDS011;59485;43.542;-5.676;2023-10-09T02:56:20;12.60;;;4.85;;
71637;SDS011;59485;43.542;-5.676;2023-10-09T02:59:04;12.90;;;4.70;;
71637;SDS011;59485;43.542;-5.676;2023-10-09T03:01:33;12.90;;;5.20;;
71637;SDS011;59485;43.542;-5.676;2023-10-09T03:04:04;13.48;;;4.93;;
71637;SDS011;59485;43.542;-5.676;2023-10-09T03:06:36;12.07;;;5.00;;
71637;SDS011;59485;43.542;-5.676;2023-10-09T03:09:09;16.45;;;4.82;;
71637;SDS011;59485;43.542;-5.676;2023-10-09T03:11:48;10.82;;;4.38;;
71637;SDS011;59485;43.542;-5.676;2023-10-09T03:14:36;14.20;;;4.85;;
71637;SDS011;59485;43.542;-5.676;2023-10-09T03:17:06;12.57;;;4.53;;
71637;SDS011;59485;43.542;-5.676;2023-10-09T03:19:36;16.03;;;4.97;;
71637;SDS011;59485;43.542;-5.676;2023-10-09T03:22:05;10.90;;;5.20;;
71637;SDS011;59485;43.542;-5.676;2023-10-09T03:24:35;10.95;;;5.13;;
71637;SDS011;59485;43.542;-5.676;2023-10-09T03:27:08;10.02;;;4.72;;
71637;SDS011;59485;43.542;-5.676;2023-10-09T03:29:34;10.40;;;5.23;;
71637;SDS011;59485;43.542;-5.676;2023-10-09T03:31:59;12.97;;;5.70;;
71637;SDS011;59485;43.542;-5.676;2023-10-09T03:34:25;14.43;;;5.28;;
71637;SDS011;59485;43.542;-5.676;2023-10-09T03:36:51;12.80;;;5.10;;
71637;SDS011;59485;43.542;-5.676;2023-10-09T03:39:29;11.57;;;5.17;;
71637;SDS011;59485;43.542;-5.676;2023-10-09T03:41:59;10.80;;;4.85;;
71637;SDS011;59485;43.542;-5.676;2023-10-09T03:44:25;10.82;;;4.75;;
71637;SDS011;59485;43.542;-5.676;2023-10-09T03:46:56;10.10;;;4.80;;
71637;SDS011;59485;43.542;-5.676;2023-10-09T03:49:22;13.05;;;4.68;;
71637;SDS011;59485;43.542;-5.676;2023-10-09T03:51:51;12.20;;;5.00;;
71637;SDS011;59485;43.542;-5.676;2023-10-09T03:54:17;15.43;;;4.70;;
71637;SDS011;59485;43.542;-5.676;2023-10-09T03:56:50;9.93;;;4.60;;
71637;SDS011;59485;43.542;-5.676;2023-10-09T03:59:18;16.23;;;4.90;;
71637;SDS011;59485;43.542;-5.676;2023-10-09T04:01:46;10.68;;;4.30;;
71637;SDS011;59485;43.542;-5.676;2023-10-09T04:04:16;10.07;;;4.32;;
71637;SDS011;59485;43.542;-5.676;2023-10-09T04:06:41;12.77;;;4.27;;
71637;SDS011;59485;43.542;-5.676;2023-10-09T04:09:07;11.27;;;4.53;;
71637;SDS011;59485;43.542;-5.676;2023-10-09T04:11:44;10.80;;;4.00;;
71637;SDS011;59485;43.542;-5.676;2023-10-09T04:14:14;10.52;;;3.95;;
71637;SDS011;59485;43.542;-5.676;2023-10-09T04:16:52;11.48;;;4.80;;
71637;SDS011;59485;43.542;-5.676;2023-10-09T04:19:21;11.82;;;4.43;;
71637;SDS011;59485;43.542;-5.676;2023-10-09T04:21:49;8.57;;;4.57;;
71637;SDS011;59485;43.542;-5.676;2023-10-09T04:24:15;8.88;;;4.20;;
71637;SDS011;59485;43.542;-5.676;2023-10-09T04:26:41;12.15;;;5.22;;
71637;SDS011;59485;43.542;-5.676;2023-10-09T04:29:14;12.03;;;4.53;;
71637;SDS011;59485;43.542;-5.676;2023-10-09T04:31:48;11.18;;;4.50;;
71637;SDS011;59485;43.542;-5.676;2023-10-09T04:34:20;14.82;;;5.20;;
71637;SDS011;59485;43.542;-5.676;2023-10-09T04:36:55;13.43;;;4.78;;
71637;SDS011;59485;43.542;-5.676;2023-10-09T04:39:42;12.18;;;3.90;;
71637;SDS011;59485;43.542;-5.676;2023-10-09T04:42:26;11.03;;;4.57;;
71637;SDS011;59485;43.542;-5.676;2023-10-09T04:45:01;13.10;;;3.78;;
71637;SDS011;59485;43.542;-5.676;2023-10-09T04:47:28;14.57;;;4.78;;
71637;SDS011;59485;43.542;-5.676;2023-10-09T04:50:04;11.25;;;4.00;;
71637;SDS011;59485;43.542;-5.676;2023-10-09T04:52:54;16.88;;;4.65;;
71637;SDS011;59485;43.542;-5.676;2023-10-09T04:55:20;13.27;;;4.83;;
71637;SDS011;59485;43.542;-5.676;2023-10-09T04:57:49;10.40;;;4.85;;
71637;SDS011;59485;43.542;-5.676;2023-10-09T05:00:34;10.13;;;4.27;;
71637;SDS011;59485;43.542;-5.676;2023-10-09T05:03:00;9.68;;;4.72;;
71637;SDS011;59485;43.542;-5.676;2023-10-09T05:05:36;14.27;;;4.78;;
71637;SDS011;59485;43.542;-5.676;2023-10-09T05:10:46;8.02;;;3.55;;
71637;SDS011;59485;43.542;-5.676;2023-10-09T05:18:46;10.85;;;3.72;;
71637;SDS011;59485;43.542;-5.676;2023-10-09T05:21:34;12.27;;;3.63;;
71637;SDS011;59485;43.542;-5.676;2023-10-09T05:24:02;11.95;;;3.50;;
71637;SDS011;59485;43.542;-5.676;2023-10-09T05:26:44;10.38;;;3.13;;
71637;SDS011;59485;43.542;-5.676;2023-10-09T05:31:39;10.32;;;3.95;;
71637;SDS011;59485;43.542;-5.676;2023-10-09T05:34:20;10.18;;;3.75;;
71637;SDS011;59485;43.542;-5.676;2023-10-09T05:36:48;10.93;;;3.67;;
71637;SDS011;59485;43.542;-5.676;2023-10-09T05:39:14;11.35;;;4.38;;
71637;SDS011;59485;43.542;-5.676;2023-10-09T05:41:47;11.27;;;4.65;;
71637;SDS011;59485;43.542;-5.676;2023-10-09T05:44:18;13.25;;;4.10;;
71637;SDS011;59485;43.542;-5.676;2023-10-09T05:47:02;11.18;;;4.13;;
71637;SDS011;59485;43.542;-5.676;2023-10-09T05:49:47;16.07;;;4.00;;
71637;SDS011;59485;43.542;-5.676;2023-10-09T05:52:20;10.85;;;4.00;;
71637;SDS011;59485;43.542;-5.676;2023-10-09T05:55:05;8.98;;;3.63;;
71637;SDS011;59485;43.542;-5.676;2023-10-09T05:57:35;12.18;;;3.92;;
71637;SDS011;59485;43.542;-5.676;2023-10-09T06:00:20;13.55;;;4.55;;
71637;SDS011;59485;43.542;-5.676;2023-10-09T06:03:03;12.23;;;4.03;;
71637;SDS011;59485;43.542;-5.676;2023-10-09T06:05:44;10.70;;;4.82;;
71637;SDS011;59485;43.542;-5.676;2023-10-09T06:08:27;9.30;;;4.30;;
71637;SDS011;59485;43.542;-5.676;2023-10-09T06:11:07;11.45;;;4.53;;
71637;SDS011;59485;43.542;-5.676;2023-10-09T06:13:52;12.77;;;5.05;;
71637;SDS011;59485;43.542;-5.676;2023-10-09T06:16:39;9.07;;;3.93;;
71637;SDS011;59485;43.542;-5.676;2023-10-09T06:19:25;10.57;;;3.88;;
71637;SDS011;59485;43.542;-5.676;2023-10-09T06:21:51;10.43;;;4.60;;
71637;SDS011;59485;43.542;-5.676;2023-10-09T06:24:39;8.70;;;3.60;;
71637;SDS011;59485;43.542;-5.676;2023-10-09T06:27:19;17.42;;;4.00;;
71637;SDS011;59485;43.542;-5.676;2023-10-09T06:29:55;11.70;;;3.53;;
71637;SDS011;59485;43.542;-5.676;2023-10-09T06:32:39;9.35;;;3.53;;
71637;SDS011;59485;43.542;-5.676;2023-10-09T06:35:34;11.13;;;3.97;;
71637;SDS011;59485;43.542;-5.676;2023-10-09T06:38:01;9.13;;;3.65;;
71637;SDS011;59485;43.542;-5.676;2023-10-09T06:40:30;14.43;;;4.07;;
71637;SDS011;59485;43.542;-5.676;2023-10-09T06:43:15;7.78;;;3.90;;
71637;SDS011;59485;43.542;-5.676;2023-10-09T06:45:47;11.18;;;3.85;;
71637;SDS011;59485;43.542;-5.676;2023-10-09T06:48:22;12.10;;;4.97;;
71637;SDS011;59485;43.542;-5.676;2023-10-09T06:51:04;15.05;;;5.13;;
71637;SDS011;59485;43.542;-5.676;2023-10-09T06:53:52;14.60;;;4.50;;
71637;SDS011;59485;43.542;-5.676;2023-10-09T06:56:21;15.13;;;5.28;;
71637;SDS011;59485;43.542;-5.676;2023-10-09T06:58:59;16.92;;;5.15;;
71637;SDS011;59485;43.542;-5.676;2023-10-09T07:01:33;16.17;;;5.53;;
71637;SDS011;59485;43.542;-5.676;2023-10-09T07:04:01;15.68;;;6.03;;
71637;SDS011;59485;43.542;-5.676;2023-10-09T07:06:44;11.50;;;5.37;;
71637;SDS011;59485;43.542;-5.676;2023-10-09T07:09:14;11.73;;;4.82;;
71637;SDS011;59485;43.542;-5.676;2023-10-09T07:11:40;14.23;;;5.45;;
71637;SDS011;59485;43.542;-5.676;2023-10-09T07:14:07;14.38;;;5.03;;
71637;SDS011;59485;43.542;-5.676;2023-10-09T07:16:58;14.68;;;5.50;;
71637;SDS011;59485;43.542;-5.676;2023-10-09T07:19:50;14.83;;;5.03;;
71637;SDS011;59485;43.542;-5.676;2023-10-09T07:22:16;16.33;;;4.70;;
71637;SDS011;59485;43.542;-5.676;2023-10-09T07:24:45;15.35;;;4.97;;
71637;SDS011;59485;43.542;-5.676;2023-10-09T07:27:23;14.38;;;4.75;;
71637;SDS011;59485;43.542;-5.676;2023-10-09T07:30:09;15.20;;;4.40;;
71637;SDS011;59485;43.542;-5.676;2023-10-09T07:32:55;15.57;;;3.93;;
71637;SDS011;59485;43.542;-5.676;2023-10-09T07:35:23;14.98;;;4.20;;
71637;SDS011;59485;43.542;-5.676;2023-10-09T07:38:07;14.75;;;4.45;;
71637;SDS011;59485;43.542;-5.676;2023-10-09T07:40:37;11.95;;;4.35;;
71637;SDS011;59485;43.542;-5.676;2023-10-09T07:43:25;9.38;;;3.67;;
71637;SDS011;59485;43.542;-5.676;2023-10-09T07:46:17;14.57;;;4.73;;
71637;SDS011;59485;43.542;-5.676;2023-10-09T07:48:58;15.90;;;5.07;;
71637;SDS011;59485;43.542;-5.676;2023-10-09T07:51:39;13.90;;;5.30;;
71637;SDS011;59485;43.542;-5.676;2023-10-09T07:54:12;17.77;;;5.40;;
71637;SDS011;59485;43.542;-5.676;2023-10-09T07:56:40;23.00;;;6.10;;
71637;SDS011;59485;43.542;-5.676;2023-10-09T07:59:13;18.97;;;6.33;;
71637;SDS011;59485;43.542;-5.676;2023-10-09T08:01:46;14.77;;;6.07;;
71637;SDS011;59485;43.542;-5.676;2023-10-09T08:04:27;21.08;;;5.88;;
71637;SDS011;59485;43.542;-5.676;2023-10-09T08:07:11;23.75;;;6.25;;
71637;SDS011;59485;43.542;-5.676;2023-10-09T08:10:08;17.20;;;6.47;;
71637;SDS011;59485;43.542;-5.676;2023-10-09T08:12:43;16.23;;;5.43;;
71637;SDS011;59485;43.542;-5.676;2023-10-09T08:15:15;17.77;;;5.78;;
71637;SDS011;59485;43.542;-5.676;2023-10-09T08:17:48;17.65;;;5.63;;
71637;SDS011;59485;43.542;-5.676;2023-10-09T08:20:26;16.73;;;5.03;;
71637;SDS011;59485;43.542;-5.676;2023-10-09T08:22:53;12.73;;;4.63;;
71637;SDS011;59485;43.542;-5.676;2023-10-09T08:25:22;14.80;;;4.40;;
71637;SDS011;59485;43.542;-5.676;2023-10-09T08:27:54;10.70;;;4.13;;
71637;SDS011;59485;43.542;-5.676;2023-10-09T08:30:39;15.00;;;4.13;;
71637;SDS011;59485;43.542;-5.676;2023-10-09T08:33:16;13.65;;;4.80;;
71637;SDS011;59485;43.542;-5.676;2023-10-09T08:35:53;14.25;;;4.85;;
71637;SDS011;59485;43.542;-5.676;2023-10-09T08:38:32;19.27;;;4.73;;
71637;SDS011;59485;43.542;-5.676;2023-10-09T08:41:11;14.05;;;4.28;;
71637;SDS011;59485;43.542;-5.676;2023-10-09T08:43:52;15.80;;;4.50;;
71637;SDS011;59485;43.542;-5.676;2023-10-09T08:46:28;17.90;;;4.10;;
71637;SDS011;59485;43.542;-5.676;2023-10-09T08:48:58;13.07;;;4.65;;
71637;SDS011;59485;43.542;-5.676;2023-10-09T08:51:24;13.00;;;4.53;;
71637;SDS011;59485;43.542;-5.676;2023-10-09T08:53:51;14.27;;;4.38;;
71637;SDS011;59485;43.542;-5.676;2023-10-09T08:56:18;13.70;;;3.92;;
71637;SDS011;59485;43.542;-5.676;2023-10-09T08:58:50;11.27;;;3.97;;
71637;SDS011;59485;43.542;-5.676;2023-10-09T09:01:23;10.02;;;3.35;;
71637;SDS011;59485;43.542;-5.676;2023-10-09T09:03:50;11.47;;;3.70;;
71637;SDS011;59485;43.542;-5.676;2023-10-09T09:06:19;10.45;;;3.53;;
71637;SDS011;59485;43.542;-5.676;2023-10-09T09:08:45;11.65;;;3.60;;
71637;SDS011;59485;43.542;-5.676;2023-10-09T09:11:16;8.60;;;3.05;;
71637;SDS011;59485;43.542;-5.676;2023-10-09T09:14:09;10.20;;;3.40;;
71637;SDS011;59485;43.542;-5.676;2023-10-09T09:16:45;9.73;;;3.50;;
71637;SDS011;59485;43.542;-5.676;2023-10-09T09:19:13;10.23;;;3.42;;
71637;SDS011;59485;43.542;-5.676;2023-10-09T09:21:49;11.80;;;2.92;;
71637;SDS011;59485;43.542;-5.676;2023-10-09T09:24:24;9.77;;;3.25;;
71637;SDS011;59485;43.542;-5.676;2023-10-09T09:26:50;6.88;;;2.42;;
71637;SDS011;59485;43.542;-5.676;2023-10-09T09:32:01;9.15;;;3.00;;
71637;SDS011;59485;43.542;-5.676;2023-10-09T09:34:50;7.97;;;3.10;;
71637;SDS011;59485;43.542;-5.676;2023-10-09T09:37:26;12.60;;;3.58;;
71637;SDS011;59485;43.542;-5.676;2023-10-09T09:40:02;8.52;;;3.95;;
71637;SDS011;59485;43.542;-5.676;2023-10-09T09:42:42;7.73;;;2.83;;
71637;SDS011;59485;43.542;-5.676;2023-10-09T09:45:13;10.20;;;3.20;;
71637;SDS011;59485;43.542;-5.676;2023-10-09T09:47:45;8.02;;;3.00;;
71637;SDS011;59485;43.542;-5.676;2023-10-09T09:50:17;8.32;;;3.13;;
71637;SDS011;59485;43.542;-5.676;2023-10-09T09:52:54;9.60;;;3.20;;
71637;SDS011;59485;43.542;-5.676;2023-10-09T09:55:23;8.97;;;2.60;;
71637;SDS011;59485;43.542;-5.676;2023-10-09T09:57:56;9.80;;;2.88;;
71637;SDS011;59485;43.542;-5.676;2023-10-09T10:00:25;7.65;;;2.97;;
71637;SDS011;59485;43.542;-5.676;2023-10-09T10:03:14;6.32;;;2.30;;
71637;SDS011;59485;43.542;-5.676;2023-10-09T10:05:44;9.50;;;3.50;;
71637;SDS011;59485;43.542;-5.676;2023-10-09T10:08:14;15.17;;;3.67;;
71637;SDS011;59485;43.542;-5.676;2023-10-09T10:10:44;11.23;;;3.47;;
71637;SDS011;59485;43.542;-5.676;2023-10-09T10:16:12;10.45;;;3.72;;
71637;SDS011;59485;43.542;-5.676;2023-10-09T10:21:33;13.50;;;5.17;;
71637;SDS011;59485;43.542;-5.676;2023-10-09T10:29:34;10.90;;;4.35;;
71637;SDS011;59485;43.542;-5.676;2023-10-09T10:32:03;10.63;;;3.72;;
71637;SDS011;59485;43.542;-5.676;2023-10-09T10:34:52;14.57;;;4.37;;
71637;SDS011;59485;43.542;-5.676;2023-10-09T10:40:13;15.13;;;5.40;;
71637;SDS011;59485;43.542;-5.676;2023-10-09T10:43:03;14.80;;;5.20;;
71637;SDS011;59485;43.542;-5.676;2023-10-09T10:45:38;14.80;;;5.53;;
71637;SDS011;59485;43.542;-5.676;2023-10-09T10:48:10;10.50;;;4.73;;
71637;SDS011;59485;43.542;-5.676;2023-10-09T10:50:56;10.23;;;4.88;;
71637;SDS011;59485;43.542;-5.676;2023-10-09T10:53:23;13.43;;;5.50;;
71637;SDS011;59485;43.542;-5.676;2023-10-09T10:55:57;13.50;;;5.90;;
71637;SDS011;59485;43.542;-5.676;2023-10-09T10:58:43;17.60;;;5.65;;
71637;SDS011;59485;43.542;-5.676;2023-10-09T11:01:37;15.43;;;5.63;;
71637;SDS011;59485;43.542;-5.676;2023-10-09T11:04:23;16.70;;;5.53;;
71637;SDS011;59485;43.542;-5.676;2023-10-09T11:06:59;12.82;;;5.75;;
71637;SDS011;59485;43.542;-5.676;2023-10-09T11:09:53;12.63;;;5.43;;
71637;SDS011;59485;43.542;-5.676;2023-10-09T11:12:31;13.85;;;5.88;;
71637;SDS011;59485;43.542;-5.676;2023-10-09T11:15:36;12.50;;;5.60;;
71637;SDS011;59485;43.542;-5.676;2023-10-09T11:18:22;16.10;;;6.75;;
71637;SDS011;59485;43.542;-5.676;2023-10-09T11:20:53;14.02;;;6.75;;
71637;SDS011;59485;43.542;-5.676;2023-10-09T11:23:28;15.68;;;7.03;;
71637;SDS011;59485;43.542;-5.676;2023-10-09T11:26:00;13.85;;;6.88;;
71637;SDS011;59485;43.542;-5.676;2023-10-09T11:31:42;19.00;;;8.65;;
71637;SDS011;59485;43.542;-5.676;2023-10-09T11:34:22;16.17;;;7.43;;
71637;SDS011;59485;43.542;-5.676;2023-10-09T11:37:02;14.50;;;6.85;;
71637;SDS011;59485;43.542;-5.676;2023-10-09T11:39:37;20.20;;;6.05;;
71637;SDS011;59485;43.542;-5.676;2023-10-09T11:42:17;21.13;;;10.60;;
71637;SDS011;59485;43.542;-5.676;2023-10-09T11:45:22;16.75;;;7.63;;
71637;SDS011;59485;43.542;-5.676;2023-10-09T11:47:53;13.07;;;6.63;;
71637;SDS011;59485;43.542;-5.676;2023-10-09T11:50:39;17.23;;;6.25;;
71637;SDS011;59485;43.542;-5.676;2023-10-09T11:53:16;16.48;;;8.52;;
71637;SDS011;59485;43.542;-5.676;2023-10-09T11:55:48;13.00;;;6.37;;
71637;SDS011;59485;43.542;-5.676;2023-10-09T11:58:17;15.27;;;6.60;;
71637;SDS011;59485;43.542;-5.676;2023-10-09T12:03:27;12.43;;;5.55;;
71637;SDS011;59485;43.542;-5.676;2023-10-09T12:05:56;16.17;;;6.70;;
71637;SDS011;59485;43.542;-5.676;2023-10-09T12:08:39;12.77;;;6.33;;
71637;SDS011;59485;43.542;-5.676;2023-10-09T12:11:06;12.35;;;6.57;;
71637;SDS011;59485;43.542;-5.676;2023-10-09T12:13:37;13.75;;;6.82;;
71637;SDS011;59485;43.542;-5.676;2023-10-09T12:16:03;12.43;;;5.90;;
71637;SDS011;59485;43.542;-5.676;2023-10-09T12:18:35;12.77;;;7.03;;
71637;SDS011;59485;43.542;-5.676;2023-10-09T12:21:02;15.43;;;6.97;;
71637;SDS011;59485;43.542;-5.676;2023-10-09T12:23:29;16.27;;;7.13;;
71637;SDS011;59485;43.542;-5.676;2023-10-09T12:26:00;16.00;;;7.78;;
71637;SDS011;59485;43.542;-5.676;2023-10-09T12:28:27;17.77;;;7.60;;
71637;SDS011;59485;43.542;-5.676;2023-10-09T12:30:53;13.93;;;7.50;;
71637;SDS011;59485;43.542;-5.676;2023-10-09T12:33:19;21.77;;;10.93;;
71637;SDS011;59485;43.542;-5.676;2023-10-09T12:35:52;13.23;;;7.90;;
71637;SDS011;59485;43.542;-5.676;2023-10-09T12:38:24;13.50;;;7.95;;
71637;SDS011;59485;43.542;-5.676;2023-10-09T12:41:06;17.02;;;7.78;;
71637;SDS011;59485;43.542;-5.676;2023-10-09T12:43:50;18.47;;;7.93;;
71637;SDS011;59485;43.542;-5.676;2023-10-09T12:46:17;19.23;;;7.97;;
71637;SDS011;59485;43.542;-5.676;2023-10-09T12:48:48;17.15;;;8.35;;
71637;SDS011;59485;43.542;-5.676;2023-10-09T12:51:14;17.42;;;6.68;;
71637;SDS011;59485;43.542;-5.676;2023-10-09T12:53:43;19.70;;;9.13;;
71637;SDS011;59485;43.542;-5.676;2023-10-09T12:56:10;20.17;;;9.23;;
71637;SDS011;59485;43.542;-5.676;2023-10-09T12:58:40;14.07;;;7.05;;
71637;SDS011;59485;43.542;-5.676;2023-10-09T13:01:17;15.55;;;6.60;;
71637;SDS011;59485;43.542;-5.676;2023-10-09T13:03:44;16.52;;;7.78;;
71637;SDS011;59485;43.542;-5.676;2023-10-09T13:06:14;17.48;;;7.80;;
71637;SDS011;59485;43.542;-5.676;2023-10-09T13:08:49;17.27;;;7.17;;
71637;SDS011;59485;43.542;-5.676;2023-10-09T13:11:14;14.75;;;8.05;;
71637;SDS011;59485;43.542;-5.676;2023-10-09T13:13:44;13.65;;;7.80;;
71637;SDS011;59485;43.542;-5.676;2023-10-09T13:16:19;13.90;;;7.40;;
71637;SDS011;59485;43.542;-5.676;2023-10-09T13:18:48;13.57;;;6.83;;
71637;SDS011;59485;43.542;-5.676;2023-10-09T13:21:17;15.35;;;7.00;;
71637;SDS011;59485;43.542;-5.676;2023-10-09T13:23:48;14.60;;;6.80;;
71637;SDS011;59485;43.542;-5.676;2023-10-09T13:26:19;14.05;;;7.15;;
71637;SDS011;59485;43.542;-5.676;2023-10-09T13:29:01;16.75;;;7.35;;
71637;SDS011;59485;43.542;-5.676;2023-10-09T13:31:28;14.60;;;7.27;;
71637;SDS011;59485;43.542;-5.676;2023-10-09T13:33:57;13.20;;;6.75;;
71637;SDS011;59485;43.542;-5.676;2023-10-09T13:36:25;13.40;;;6.43;;
71637;SDS011;59485;43.542;-5.676;2023-10-09T13:41:59;14.27;;;6.18;;
71637;SDS011;59485;43.542;-5.676;2023-10-09T13:44:26;13.63;;;6.60;;
71637;SDS011;59485;43.542;-5.676;2023-10-09T13:46:56;11.95;;;5.75;;
71637;SDS011;59485;43.542;-5.676;2023-10-09T13:49:23;14.05;;;5.28;;
71637;SDS011;59485;43.542;-5.676;2023-10-09T13:51:54;13.98;;;6.70;;
71637;SDS011;59485;43.542;-5.676;2023-10-09T13:54:22;13.55;;;6.20;;
71637;SDS011;59485;43.542;-5.676;2023-10-09T13:56:57;11.97;;;6.20;;
71637;SDS011;59485;43.542;-5.676;2023-10-09T13:59:29;11.75;;;7.13;;
71637;SDS011;59485;43.542;-5.676;2023-10-09T14:01:55;11.23;;;6.38;;
71637;SDS011;59485;43.542;-5.676;2023-10-09T14:04:21;14.40;;;6.40;;
71637;SDS011;59485;43.542;-5.676;2023-10-09T14:06:50;15.38;;;5.70;;
71637;SDS011;59485;43.542;-5.676;2023-10-09T14:09:22;12.43;;;5.95;;
71637;SDS011;59485;43.542;-5.676;2023-10-09T14:12:04;10.18;;;6.15;;
71637;SDS011;59485;43.542;-5.676;2023-10-09T14:14:41;12.95;;;6.20;;
71637;SDS011;59485;43.542;-5.676;2023-10-09T14:17:14;14.30;;;6.17;;
71637;SDS011;59485;43.542;-5.676;2023-10-09T14:19:44;12.98;;;7.80;;
71637;SDS011;59485;43.542;-5.676;2023-10-09T14:22:16;13.30;;;8.13;;
71637;SDS011;59485;43.542;-5.676;2023-10-09T14:24:43;14.25;;;9.15;;
71637;SDS011;59485;43.542;-5.676;2023-10-09T14:27:10;16.63;;;10.02;;
71637;SDS011;59485;43.542;-5.676;2023-10-09T14:29:43;17.37;;;9.50;;
71637;SDS011;59485;43.542;-5.676;2023-10-09T14:32:14;15.85;;;10.40;;
71637;SDS011;59485;43.542;-5.676;2023-10-09T14:34:41;13.88;;;9.05;;
71637;SDS011;59485;43.542;-5.676;2023-10-09T14:37:19;16.83;;;10.20;;
71637;SDS011;59485;43.542;-5.676;2023-10-09T14:39:49;16.73;;;9.88;;
71637;SDS011;59485;43.542;-5.676;2023-10-09T14:42:15;14.97;;;9.27;;
71637;SDS011;59485;43.542;-5.676;2023-10-09T14:44:41;14.70;;;9.43;;
71637;SDS011;59485;43.542;-5.676;2023-10-09T14:47:10;14.70;;;10.10;;
71637;SDS011;59485;43.542;-5.676;2023-10-09T14:49:35;18.30;;;9.97;;
71637;SDS011;59485;43.542;-5.676;2023-10-09T14:52:08;17.15;;;10.35;;
71637;SDS011;59485;43.542;-5.676;2023-10-09T14:54:35;18.50;;;9.73;;
71637;SDS011;59485;43.542;-5.676;2023-10-09T14:57:04;19.00;;;9.73;;
71637;SDS011;59485;43.542;-5.676;2023-10-09T14:59:34;14.65;;;9.95;;
71637;SDS011;59485;43.542;-5.676;2023-10-09T15:02:00;16.70;;;10.00;;
71637;SDS011;59485;43.542;-5.676;2023-10-09T15:04:26;18.10;;;11.05;;
71637;SDS011;59485;43.542;-5.676;2023-10-09T15:06:52;15.15;;;10.10;;
71637;SDS011;59485;43.542;-5.676;2023-10-09T15:09:18;16.60;;;10.80;;
71637;SDS011;59485;43.542;-5.676;2023-10-09T15:11:54;17.73;;;10.10;;
71637;SDS011;59485;43.542;-5.676;2023-10-09T15:14:20;14.77;;;9.82;;
71637;SDS011;59485;43.542;-5.676;2023-10-09T15:16:48;17.40;;;10.23;;
71637;SDS011;59485;43.542;-5.676;2023-10-09T15:19:15;16.83;;;10.13;;
71637;SDS011;59485;43.542;-5.676;2023-10-09T15:21:45;15.25;;;10.63;;
71637;SDS011;59485;43.542;-5.676;2023-10-09T15:24:11;16.10;;;10.30;;
71637;SDS011;59485;43.542;-5.676;2023-10-09T15:29:05;15.77;;;9.87;;
71637;SDS011;59485;43.542;-5.676;2023-10-09T15:31:32;15.07;;;9.57;;
71637;SDS011;59485;43.542;-5.676;2023-10-09T15:33:58;15.23;;;9.20;;
71637;SDS011;59485;43.542;-5.676;2023-10-09T15:36:24;14.93;;;9.13;;
71637;SDS011;59485;43.542;-5.676;2023-10-09T15:38:54;16.90;;;9.10;;
71637;SDS011;59485;43.542;-5.676;2023-10-09T15:41:25;14.17;;;9.20;;
71637;SDS011;59485;43.542;-5.676;2023-10-09T15:43:55;15.55;;;8.55;;
71637;SDS011;59485;43.542;-5.676;2023-10-09T15:46:22;15.18;;;9.85;;